createdAt,value
2023-05-21T00:00:45.779Z,14.60
2023-05-21T00:01:45.786Z,14.10
2023-05-21T00:02:45.786Z,14.50
2023-05-21T00:03:45.854Z,14.50
2023-05-21T00:04:45.756Z,14.60
2023-05-21T00:05:45.773Z,13.90
2023-05-21T00:06:45.708Z,14.50
2023-05-21T00:07:45.682Z,14.10
2023-05-21T00:08:46.006Z,14.10
2023-05-21T00:09:45.706Z,13.50
2023-05-21T00:10:45.665Z,13.50
2023-05-21T00:11:45.659Z,14.00
2023-05-21T00:12:45.740Z,14.60
2023-05-21T00:13:45.658Z,14.70
2023-05-21T00:14:45.620Z,14.60
2023-05-21T00:15:45.620Z,14.30
2023-05-21T00:16:45.782Z,13.90
2023-05-21T00:17:45.717Z,14.60
2023-05-21T00:18:45.637Z,14.90
2023-05-21T00:19:45.601Z,14.10
2023-05-21T00:20:45.626Z,14.00
2023-05-21T00:21:45.607Z,14.00
2023-05-21T00:22:45.586Z,14.90
2023-05-21T00:23:45.550Z,14.70
2023-05-21T00:24:45.544Z,14.20
2023-05-21T00:25:45.571Z,13.80
2023-05-21T00:26:45.616Z,15.00
2023-05-21T00:27:45.874Z,14.60
2023-05-21T00:28:45.542Z,14.20
2023-05-21T00:29:45.619Z,14.30
2023-05-21T00:30:45.541Z,14.80
2023-05-21T00:31:45.601Z,13.80
2023-05-21T00:32:45.574Z,14.50
2023-05-21T00:33:45.499Z,14.50
2023-05-21T00:34:45.486Z,14.20
2023-05-21T00:35:45.550Z,15.00
2023-05-21T00:36:45.510Z,14.30
2023-05-21T00:37:45.450Z,14.00
2023-05-21T00:38:45.441Z,13.80
2023-05-21T00:39:45.452Z,14.10
2023-05-21T00:40:45.470Z,14.20
2023-05-21T00:41:45.519Z,14.50
2023-05-21T00:42:45.475Z,15.00
2023-05-21T00:43:45.420Z,13.90
2023-05-21T00:44:45.482Z,15.00
2023-05-21T00:45:45.527Z,13.90
2023-05-21T00:46:45.412Z,14.50
2023-05-21T00:47:45.456Z,14.20
2023-05-21T00:48:45.384Z,15.00
2023-05-21T00:49:46.378Z,13.70
2023-05-21T00:50:45.392Z,15.20
2023-05-21T00:51:45.364Z,15.00
2023-05-21T00:52:45.365Z,15.30
2023-05-21T00:53:45.366Z,14.40
2023-05-21T00:54:45.342Z,15.20
2023-05-21T00:55:45.494Z,15.40
2023-05-21T00:56:45.378Z,13.90
2023-05-21T00:57:45.314Z,14.10
2023-05-21T00:58:45.272Z,15.50
2023-05-21T00:59:45.280Z,14.60
2023-05-21T01:00:45.277Z,15.20
2023-05-21T01:01:45.430Z,14.80
2023-05-21T01:02:45.360Z,14.80
2023-05-21T01:03:45.284Z,14.50
2023-05-21T01:04:45.250Z,15.10
2023-05-21T01:05:45.297Z,15.00
2023-05-21T01:06:45.257Z,15.20
2023-05-21T01:07:45.206Z,15.20
2023-05-21T01:08:45.199Z,15.20
2023-05-21T01:09:45.244Z,15.40
2023-05-21T01:10:45.236Z,14.50
2023-05-21T01:11:45.210Z,16.30
2023-05-21T01:12:45.205Z,14.80
2023-05-21T01:13:45.172Z,14.70
2023-05-21T01:14:45.217Z,15.00
2023-05-21T01:15:45.165Z,14.70
2023-05-21T01:16:45.179Z,15.30
2023-05-21T01:17:45.165Z,15.30
2023-05-21T01:18:45.315Z,15.20
2023-05-21T01:19:45.256Z,15.30
2023-05-21T01:20:45.175Z,15.30
2023-05-21T01:21:45.159Z,15.90
2023-05-21T01:22:45.165Z,15.90
2023-05-21T01:23:45.109Z,15.40
2023-05-21T01:24:45.113Z,15.40
2023-05-21T01:25:45.066Z,16.30
2023-05-21T01:26:45.067Z,14.90
2023-05-21T01:27:45.080Z,15.10
2023-05-21T01:28:45.035Z,15.50
2023-05-21T01:29:45.071Z,16.20
2023-05-21T01:30:45.032Z,16.10
2023-05-21T01:31:45.030Z,16.40
2023-05-21T01:32:45.051Z,15.20
2023-05-21T01:33:45.084Z,15.10
2023-05-21T01:34:45.020Z,15.60
2023-05-21T01:35:44.985Z,15.90
2023-05-21T01:36:44.983Z,16.50
2023-05-21T01:37:44.996Z,15.80
2023-05-21T01:38:44.974Z,15.70
2023-05-21T01:39:45.013Z,15.50
2023-05-21T01:40:45.005Z,14.90
2023-05-21T01:41:45.000Z,16.00
2023-05-21T01:42:44.943Z,15.50
2023-05-21T01:43:44.962Z,15.40
2023-05-21T01:44:44.931Z,15.50
2023-05-21T01:45:44.945Z,15.80
2023-05-21T01:46:44.996Z,15.80
2023-05-21T01:47:44.940Z,15.50
2023-05-21T01:48:44.894Z,15.40
2023-05-21T01:49:44.879Z,15.90
2023-05-21T01:50:44.919Z,15.70
2023-05-21T01:51:44.879Z,14.80
2023-05-21T01:52:44.872Z,15.80
2023-05-21T01:53:44.856Z,15.90
2023-05-21T01:54:44.851Z,16.30
2023-05-21T01:55:44.852Z,15.70
2023-05-21T01:56:44.847Z,16.20
2023-05-21T01:57:44.825Z,15.70
2023-05-21T01:58:44.819Z,16.00
2023-05-21T01:59:44.913Z,16.10
2023-05-21T02:00:44.828Z,15.80
2023-05-21T02:01:44.885Z,16.30
2023-05-21T02:02:44.849Z,15.80
2023-05-21T02:03:44.906Z,15.90
2023-05-21T02:04:44.755Z,16.20
2023-05-21T02:05:44.785Z,16.60
2023-05-21T02:06:44.746Z,16.30
2023-05-21T02:07:44.744Z,15.70
2023-05-21T02:08:44.758Z,16.00
2023-05-21T02:09:44.734Z,16.20
2023-05-21T02:10:44.722Z,16.50
2023-05-21T02:11:44.718Z,15.60
2023-05-21T02:12:44.699Z,16.60
2023-05-21T02:13:44.732Z,16.70
2023-05-21T02:14:44.684Z,15.70
2023-05-21T02:15:44.677Z,15.70
2023-05-21T02:16:44.711Z,15.90
2023-05-21T02:17:44.718Z,16.10
2023-05-21T02:18:44.758Z,15.80
2023-05-21T02:19:44.674Z,16.30
2023-05-21T02:20:44.664Z,15.50
2023-05-21T02:21:44.644Z,15.40
2023-05-21T02:22:44.683Z,16.00
2023-05-21T02:23:44.643Z,16.10
2023-05-21T02:24:44.611Z,16.60
2023-05-21T02:25:44.645Z,16.40
2023-05-21T02:26:44.594Z,16.70
2023-05-21T02:27:44.633Z,16.30
2023-05-21T02:28:44.621Z,16.60
2023-05-21T02:29:44.569Z,16.70
2023-05-21T02:30:44.599Z,15.90
2023-05-21T02:31:44.562Z,16.10
2023-05-21T02:32:44.579Z,16.50
2023-05-21T02:33:44.614Z,16.40
2023-05-21T02:34:44.539Z,16.40
2023-05-21T02:35:44.573Z,16.40
2023-05-21T02:36:44.553Z,16.40
2023-05-21T02:37:44.669Z,16.90
2023-05-21T02:38:44.524Z,17.10
2023-05-21T02:39:44.496Z,15.80
2023-05-21T02:40:44.508Z,16.50
2023-05-21T02:41:44.543Z,16.30
2023-05-21T02:42:44.500Z,16.60
2023-05-21T02:43:44.467Z,16.70
2023-05-21T02:44:44.438Z,16.40
2023-05-21T02:45:44.450Z,16.20
2023-05-21T02:46:44.483Z,16.40
2023-05-21T02:47:44.457Z,16.40
2023-05-21T02:48:44.480Z,16.70
2023-05-21T02:49:44.420Z,17.00
2023-05-21T02:50:44.458Z,16.00
2023-05-21T02:51:44.401Z,16.10
2023-05-21T02:52:44.403Z,16.20
2023-05-21T02:53:44.372Z,16.80
2023-05-21T02:54:44.365Z,16.20
2023-05-21T02:55:44.362Z,16.80
2023-05-21T02:56:44.357Z,17.20
2023-05-21T02:57:44.395Z,16.20
2023-05-21T02:58:44.538Z,17.30
2023-05-21T02:59:44.324Z,16.80
2023-05-21T03:00:44.323Z,16.50
2023-05-21T03:01:44.383Z,17.20
2023-05-21T03:02:44.399Z,16.90
2023-05-21T03:03:44.330Z,17.00
2023-05-21T03:04:44.284Z,17.50
2023-05-21T03:05:44.273Z,17.30
2023-05-21T03:06:44.268Z,16.80
2023-05-21T03:07:44.281Z,16.80
2023-05-21T03:08:44.252Z,16.60
2023-05-21T03:09:44.265Z,16.20
2023-05-21T03:10:44.298Z,17.30
2023-05-21T03:11:44.255Z,17.80
2023-05-21T03:12:44.226Z,17.40
2023-05-21T03:13:44.291Z,17.60
2023-05-21T03:14:44.252Z,16.70
2023-05-21T03:15:44.184Z,16.60
2023-05-21T03:16:44.223Z,17.00
2023-05-21T03:17:44.207Z,17.10
2023-05-21T03:18:44.226Z,16.70
2023-05-21T03:19:44.167Z,16.80
2023-05-21T03:20:44.165Z,17.40
2023-05-21T03:21:44.152Z,16.90
2023-05-21T03:22:44.151Z,17.00
2023-05-21T03:23:44.153Z,16.40
2023-05-21T03:24:44.161Z,16.80
2023-05-21T03:25:44.113Z,16.10
2023-05-21T03:26:44.127Z,15.70
2023-05-21T03:27:44.105Z,17.00
2023-05-21T03:28:44.086Z,18.10
2023-05-21T03:29:44.072Z,16.30
2023-05-21T03:30:44.097Z,16.60
2023-05-21T03:31:44.137Z,16.80
2023-05-21T03:32:44.143Z,17.50
2023-05-21T03:33:44.061Z,17.40
2023-05-21T03:34:44.057Z,17.50
2023-05-21T03:35:44.037Z,17.40
2023-05-21T03:36:44.032Z,16.80
2023-05-21T03:37:44.040Z,17.30
2023-05-21T03:38:44.009Z,16.40
2023-05-21T03:39:43.986Z,17.30
2023-05-21T03:40:44.006Z,17.70
2023-05-21T03:41:44.006Z,18.10
2023-05-21T03:42:44.014Z,17.00
2023-05-21T03:43:43.998Z,16.90
2023-05-21T03:44:43.960Z,17.90
2023-05-21T03:45:44.596Z,18.40
2023-05-21T03:46:43.959Z,17.30
2023-05-21T03:47:44.008Z,17.40
2023-05-21T03:48:43.922Z,16.80
2023-05-21T03:49:43.928Z,17.80
2023-05-21T03:50:43.918Z,17.20
2023-05-21T03:51:43.898Z,16.50
2023-05-21T03:52:43.924Z,16.90
2023-05-21T03:53:43.882Z,17.30
2023-05-21T03:54:43.892Z,17.50
2023-05-21T03:55:43.876Z,18.20
2023-05-21T03:56:43.854Z,16.60
2023-05-21T03:57:43.885Z,17.20
2023-05-21T03:58:43.860Z,16.90
2023-05-21T03:59:43.846Z,17.00
2023-05-21T04:00:43.847Z,16.70
2023-05-21T04:01:43.845Z,17.40
2023-05-21T04:02:43.974Z,16.80
2023-05-21T04:03:43.989Z,17.70
2023-05-21T04:04:43.831Z,16.40
2023-05-21T04:05:43.808Z,16.10
2023-05-21T04:06:43.793Z,16.90
2023-05-21T04:07:43.784Z,17.00
2023-05-21T04:08:43.782Z,17.50
2023-05-21T04:09:44.783Z,17.20
2023-05-21T04:10:43.747Z,16.90
2023-05-21T04:11:43.760Z,17.20
2023-05-21T04:12:43.748Z,17.10
2023-05-21T04:13:43.749Z,17.70
2023-05-21T04:14:43.755Z,17.90
2023-05-21T04:15:43.746Z,17.80
2023-05-21T04:16:43.728Z,17.80
2023-05-21T04:17:43.869Z,18.00
2023-05-21T04:18:45.552Z,17.20
2023-05-21T04:19:44.698Z,17.60
2023-05-21T04:20:43.691Z,17.50
2023-05-21T04:21:43.666Z,17.00
2023-05-21T04:22:44.502Z,17.00
2023-05-21T04:23:43.679Z,17.40
2023-05-21T04:24:43.659Z,17.20
2023-05-21T04:25:43.637Z,17.20
2023-05-21T04:26:43.640Z,17.60
2023-05-21T04:27:43.697Z,16.60
2023-05-21T04:28:43.624Z,17.40
2023-05-21T04:29:43.637Z,18.50
2023-05-21T04:30:43.584Z,17.00
2023-05-21T04:31:43.699Z,17.30
2023-05-21T04:32:43.606Z,17.20
2023-05-21T04:33:43.561Z,17.50
2023-05-21T04:34:43.566Z,16.40
2023-05-21T04:35:43.572Z,17.30
2023-05-21T04:36:43.551Z,18.00
2023-05-21T04:37:43.525Z,16.10
2023-05-21T04:38:43.515Z,17.80
2023-05-21T04:39:43.542Z,17.30
2023-05-21T04:40:43.512Z,16.90
2023-05-21T04:41:43.535Z,17.60
2023-05-21T04:42:43.510Z,17.70
2023-05-21T04:43:44.472Z,18.10
2023-05-21T04:44:43.483Z,18.50
2023-05-21T04:45:43.499Z,17.10
2023-05-21T04:46:43.511Z,17.50
2023-05-21T04:47:43.531Z,17.00
2023-05-21T04:48:43.454Z,17.50
2023-05-21T04:49:43.440Z,17.10
2023-05-21T04:50:43.463Z,17.00
2023-05-21T04:51:43.428Z,18.20
2023-05-21T04:52:43.405Z,17.90
2023-05-21T04:53:43.407Z,18.00
2023-05-21T04:54:43.406Z,17.30
2023-05-21T04:55:43.427Z,17.20
2023-05-21T04:56:43.440Z,18.20
2023-05-21T04:57:43.372Z,17.70
2023-05-21T04:58:43.371Z,16.90
2023-05-21T04:59:43.361Z,17.40
2023-05-21T05:00:43.379Z,16.90
2023-05-21T05:01:43.398Z,17.00
2023-05-21T05:02:43.438Z,16.40
2023-05-21T05:03:43.433Z,17.50
2023-05-21T05:04:43.429Z,16.60
2023-05-21T05:05:43.306Z,17.60
2023-05-21T05:06:43.314Z,17.70
2023-05-21T05:07:43.313Z,18.00
2023-05-21T05:08:43.290Z,17.50
2023-05-21T05:09:43.347Z,17.20
2023-05-21T05:10:43.319Z,17.70
2023-05-21T05:11:43.291Z,17.70
2023-05-21T05:12:43.249Z,17.10
2023-05-21T05:13:43.250Z,17.90
2023-05-21T05:14:43.260Z,18.20
2023-05-21T05:15:43.242Z,17.60
2023-05-21T05:16:43.278Z,17.50
2023-05-21T05:17:43.254Z,17.80
2023-05-21T05:18:43.220Z,17.70
2023-05-21T05:19:43.218Z,18.10
2023-05-21T05:20:43.194Z,17.50
2023-05-21T05:21:43.183Z,17.90
2023-05-21T05:22:43.174Z,18.30
2023-05-21T05:23:43.187Z,18.50
2023-05-21T05:24:43.189Z,18.00
2023-05-21T05:25:43.159Z,19.00
2023-05-21T05:26:43.178Z,18.70
2023-05-21T05:27:43.131Z,17.90
2023-05-21T05:28:43.175Z,18.10
2023-05-21T05:29:43.124Z,18.60
2023-05-21T05:30:43.129Z,18.40
2023-05-21T05:31:43.126Z,17.40
2023-05-21T05:32:43.157Z,18.20
2023-05-21T05:33:43.093Z,17.90
2023-05-21T05:34:43.092Z,18.00
2023-05-21T05:35:43.247Z,18.70
2023-05-21T05:36:43.094Z,18.70
2023-05-21T05:37:43.065Z,17.80
2023-05-21T05:38:43.056Z,18.20
2023-05-21T05:39:43.058Z,17.80
2023-05-21T05:40:43.025Z,18.60
2023-05-21T05:41:43.056Z,18.40
2023-05-21T05:42:43.067Z,18.10
2023-05-21T05:43:43.020Z,18.70
2023-05-21T05:44:43.000Z,18.20
2023-05-21T05:45:42.987Z,17.40
2023-05-21T05:46:43.087Z,18.60
2023-05-21T05:47:43.010Z,18.20
2023-05-21T05:48:42.972Z,18.40
2023-05-21T05:49:42.954Z,17.60
2023-05-21T05:50:43.100Z,18.40
2023-05-21T05:51:42.975Z,18.10
2023-05-21T05:52:43.975Z,16.70
2023-05-21T05:53:42.922Z,17.80
2023-05-21T05:54:42.906Z,18.60
2023-05-21T05:55:42.915Z,18.30
2023-05-21T05:56:42.906Z,18.60
2023-05-21T05:57:44.962Z,18.00
2023-05-21T05:58:42.884Z,18.30
2023-05-21T05:59:42.876Z,18.20
2023-05-21T06:00:42.874Z,18.20
2023-05-21T06:01:42.855Z,18.40
2023-05-21T06:02:42.972Z,19.20
2023-05-21T06:03:43.065Z,18.20
2023-05-21T06:04:42.833Z,18.20
2023-05-21T06:05:42.888Z,18.40
2023-05-21T06:06:42.935Z,18.80
2023-05-21T06:07:42.797Z,18.90
2023-05-21T06:08:42.798Z,19.40
2023-05-21T06:09:42.816Z,19.80
2023-05-21T06:10:42.787Z,19.70
2023-05-21T06:11:42.905Z,18.30
2023-05-21T06:12:42.803Z,18.70
2023-05-21T06:13:42.764Z,19.20
2023-05-21T06:14:45.053Z,18.10
2023-05-21T06:15:42.794Z,18.40
2023-05-21T06:16:42.803Z,19.10
2023-05-21T06:17:42.797Z,19.10
2023-05-21T06:18:42.787Z,19.80
2023-05-21T06:19:42.736Z,19.40
2023-05-21T06:20:42.816Z,19.00
2023-05-21T06:21:42.750Z,17.90
2023-05-21T06:22:42.711Z,18.60
2023-05-21T06:23:42.712Z,18.50
2023-05-21T06:24:42.702Z,18.60
2023-05-21T06:25:42.709Z,18.70
2023-05-21T06:26:42.695Z,18.60
2023-05-21T06:27:42.688Z,17.80
2023-05-21T06:28:42.672Z,18.50
2023-05-21T06:29:42.687Z,18.80
2023-05-21T06:30:42.666Z,18.50
2023-05-21T06:31:42.633Z,18.90
2023-05-21T06:32:42.725Z,19.70
2023-05-21T06:33:42.733Z,19.20
2023-05-21T06:34:42.627Z,20.30
2023-05-21T06:35:42.654Z,19.50
2023-05-21T06:36:42.610Z,18.90
2023-05-21T06:37:42.612Z,19.00
2023-05-21T06:38:42.642Z,19.50
2023-05-21T06:39:42.568Z,18.80
2023-05-21T06:40:42.552Z,19.00
2023-05-21T06:41:42.587Z,19.80
2023-05-21T06:42:42.543Z,18.60
2023-05-21T06:43:42.603Z,19.30
2023-05-21T06:44:42.545Z,18.70
2023-05-21T06:45:42.580Z,20.10
2023-05-21T06:46:42.552Z,18.50
2023-05-21T06:47:42.558Z,19.00
2023-05-21T06:48:42.543Z,19.20
2023-05-21T06:49:42.507Z,18.40
2023-05-21T06:50:42.502Z,19.10
2023-05-21T06:51:42.517Z,20.30
2023-05-21T06:52:42.489Z,19.40
2023-05-21T06:53:42.547Z,19.50
2023-05-21T06:54:42.453Z,19.90
2023-05-21T06:55:42.483Z,18.20
2023-05-21T06:56:42.431Z,18.70
2023-05-21T06:57:42.437Z,19.20
2023-05-21T06:58:42.450Z,18.90
2023-05-21T06:59:42.478Z,18.80
2023-05-21T07:00:42.405Z,19.80
2023-05-21T07:01:42.567Z,20.20
2023-05-21T07:02:42.536Z,19.80
2023-05-21T07:03:42.477Z,18.90
2023-05-21T07:04:42.426Z,19.40
2023-05-21T07:05:43.385Z,18.40
2023-05-21T07:06:42.397Z,19.80
2023-05-21T07:07:42.372Z,19.70
2023-05-21T07:08:42.387Z,19.40
2023-05-21T07:09:42.367Z,18.90
2023-05-21T07:10:42.360Z,18.70
2023-05-21T07:11:42.372Z,19.20
2023-05-21T07:12:42.366Z,19.40
2023-05-21T07:13:42.329Z,20.00
2023-05-21T07:14:42.370Z,19.50
2023-05-21T07:15:42.303Z,19.40
2023-05-21T07:16:42.331Z,20.10
2023-05-21T07:17:42.351Z,19.50
2023-05-21T07:18:42.339Z,20.80
2023-05-21T07:19:42.325Z,21.30
2023-05-21T07:20:42.285Z,21.50
2023-05-21T07:21:42.285Z,21.30
2023-05-21T07:22:42.269Z,21.10
2023-05-21T07:23:42.277Z,21.30
2023-05-21T07:24:42.252Z,21.30
2023-05-21T07:25:42.239Z,20.90
2023-05-21T07:26:42.263Z,22.20
2023-05-21T07:27:42.238Z,21.60
2023-05-21T07:28:42.211Z,21.50
2023-05-21T07:29:42.225Z,21.10
2023-05-21T07:30:42.276Z,22.20
2023-05-21T07:31:42.235Z,21.30
2023-05-21T07:32:42.265Z,21.00
2023-05-21T07:33:42.225Z,21.40
2023-05-21T07:34:42.172Z,22.30
2023-05-21T07:35:42.177Z,23.00
2023-05-21T07:36:42.181Z,23.60
2023-05-21T07:37:42.215Z,24.10
2023-05-21T07:38:42.186Z,23.40
2023-05-21T07:39:42.144Z,22.30
2023-05-21T07:40:43.146Z,23.80
2023-05-21T07:41:42.176Z,24.30
2023-05-21T07:42:42.173Z,23.40
2023-05-21T07:43:42.138Z,24.30
2023-05-21T07:44:42.144Z,24.70
2023-05-21T07:45:42.120Z,25.00
2023-05-21T07:46:42.208Z,24.00
2023-05-21T07:47:42.145Z,23.40
2023-05-21T07:48:42.098Z,23.80
2023-05-21T07:49:42.115Z,23.20
2023-05-21T07:50:42.084Z,24.10
2023-05-21T07:51:42.093Z,23.90
2023-05-21T07:52:42.154Z,23.90
2023-05-21T07:53:42.067Z,25.10
2023-05-21T07:54:42.055Z,24.30
2023-05-21T07:55:42.056Z,24.40
2023-05-21T07:56:42.063Z,25.10
2023-05-21T07:57:42.081Z,25.30
2023-05-21T07:58:42.042Z,25.80
2023-05-21T07:59:42.042Z,24.30
2023-05-21T08:00:42.033Z,24.70
2023-05-21T08:01:42.081Z,24.00
2023-05-21T08:02:42.226Z,24.40
2023-05-21T08:03:42.099Z,24.10
2023-05-21T08:04:42.029Z,23.20
2023-05-21T08:05:41.996Z,23.50
2023-05-21T08:06:41.992Z,24.40
2023-05-21T08:07:42.035Z,25.20
2023-05-21T08:08:42.014Z,23.80
2023-05-21T08:09:42.118Z,24.80
2023-05-21T08:10:42.003Z,24.30
2023-05-21T08:11:41.945Z,24.80
2023-05-21T08:12:41.941Z,24.50
2023-05-21T08:13:41.957Z,24.30
2023-05-21T08:14:41.933Z,24.00
2023-05-21T08:15:41.937Z,24.40
2023-05-21T08:16:42.091Z,23.40
2023-05-21T08:17:42.046Z,25.50
2023-05-21T08:18:41.971Z,25.50
2023-05-21T08:19:41.931Z,24.10
2023-05-21T08:20:41.931Z,24.60
2023-05-21T08:21:41.897Z,24.20
2023-05-21T08:22:41.900Z,23.50
2023-05-21T08:23:41.870Z,24.30
2023-05-21T08:24:41.868Z,24.70
2023-05-21T08:25:41.867Z,23.80
2023-05-21T08:26:41.945Z,24.30
2023-05-21T08:27:41.868Z,25.30
2023-05-21T08:28:41.885Z,25.20
2023-05-21T08:29:41.849Z,25.00
2023-05-21T08:30:41.845Z,26.40
2023-05-21T08:31:41.903Z,25.60
2023-05-21T08:32:41.850Z,25.10
2023-05-21T08:33:41.846Z,24.70
2023-05-21T08:34:41.803Z,25.80
2023-05-21T08:35:41.798Z,24.80
2023-05-21T08:36:41.840Z,26.40
2023-05-21T08:37:41.802Z,24.20
2023-05-21T08:38:41.908Z,23.50
2023-05-21T08:39:41.803Z,23.50
2023-05-21T08:40:41.789Z,24.40
2023-05-21T08:41:41.782Z,23.70
2023-05-21T08:42:41.747Z,23.20
2023-05-21T08:43:41.818Z,23.10
2023-05-21T08:44:41.777Z,23.40
2023-05-21T08:45:41.736Z,24.30
2023-05-21T08:46:41.746Z,24.40
2023-05-21T08:47:41.761Z,24.80
2023-05-21T08:48:41.707Z,24.80
2023-05-21T08:49:41.714Z,24.90
2023-05-21T08:50:41.776Z,23.90
2023-05-21T08:51:41.690Z,24.30
2023-05-21T08:52:41.709Z,24.00
2023-05-21T08:53:41.699Z,24.00
2023-05-21T08:54:41.659Z,25.00
2023-05-21T08:55:41.660Z,23.80
2023-05-21T08:56:41.667Z,23.80
2023-05-21T08:57:41.720Z,22.30
2023-05-21T08:58:41.650Z,23.70
2023-05-21T08:59:41.664Z,22.10
2023-05-21T09:00:41.650Z,21.90
2023-05-21T09:01:41.670Z,22.60
2023-05-21T09:02:41.661Z,23.50
2023-05-21T09:03:41.646Z,23.10
2023-05-21T09:04:41.763Z,22.40
2023-05-21T09:05:41.625Z,23.40
2023-05-21T09:06:41.604Z,22.40
2023-05-21T09:07:41.626Z,21.30
2023-05-21T09:08:41.654Z,21.50
2023-05-21T09:09:41.573Z,22.60
2023-05-21T09:10:41.625Z,23.00
2023-05-21T09:11:41.559Z,23.80
2023-05-21T09:12:41.576Z,22.80
2023-05-21T09:13:41.566Z,23.40
2023-05-21T09:14:42.589Z,23.60
2023-05-21T09:15:41.551Z,23.20
2023-05-21T09:16:41.586Z,24.30
2023-05-21T09:17:41.594Z,23.60
2023-05-21T09:18:41.527Z,24.00
2023-05-21T09:19:41.650Z,22.50
2023-05-21T09:20:41.572Z,22.00
2023-05-21T09:21:41.552Z,23.50
2023-05-21T09:22:41.513Z,23.60
2023-05-21T09:23:41.486Z,22.90
2023-05-21T09:24:41.513Z,22.70
2023-05-21T09:25:41.552Z,22.70
2023-05-21T09:26:41.535Z,23.80
2023-05-21T09:27:41.494Z,23.50
2023-05-21T09:28:41.472Z,23.10
2023-05-21T09:29:41.490Z,22.40
2023-05-21T09:30:41.616Z,20.80
2023-05-21T09:31:41.467Z,22.30
2023-05-21T09:32:41.485Z,20.90
2023-05-21T09:33:41.428Z,20.60
2023-05-21T09:34:41.531Z,21.10
2023-05-21T09:35:41.466Z,21.20
2023-05-21T09:36:41.422Z,22.30
2023-05-21T09:37:41.427Z,21.10
2023-05-21T09:38:41.412Z,21.80
2023-05-21T09:39:41.392Z,22.40
2023-05-21T09:40:41.422Z,20.90
2023-05-21T09:41:41.396Z,20.40
2023-05-21T09:42:41.412Z,20.30
2023-05-21T09:43:41.364Z,21.00
2023-05-21T09:44:41.364Z,20.70
2023-05-21T09:45:41.365Z,21.10
2023-05-21T09:46:41.802Z,21.80
2023-05-21T09:47:41.375Z,21.00
2023-05-21T09:48:41.390Z,21.40
2023-05-21T09:49:41.335Z,20.70
2023-05-21T09:50:41.316Z,20.30
2023-05-21T09:51:41.409Z,20.40
2023-05-21T09:52:42.237Z,21.00
2023-05-21T09:53:42.334Z,21.20
2023-05-21T09:54:41.356Z,20.40
2023-05-21T09:55:41.488Z,19.90
2023-05-21T09:56:41.304Z,20.40
2023-05-21T09:57:41.266Z,19.90
2023-05-21T09:58:41.262Z,20.20
2023-05-21T09:59:41.273Z,20.40
2023-05-21T10:00:41.315Z,22.30
2023-05-21T10:01:41.305Z,22.50
2023-05-21T10:02:41.315Z,20.90
2023-05-21T10:03:41.238Z,20.80
2023-05-21T10:04:42.076Z,21.10
2023-05-21T10:05:41.278Z,21.60
2023-05-21T10:06:41.220Z,20.90
2023-05-21T10:07:41.241Z,20.60
2023-05-21T10:08:41.198Z,22.00
2023-05-21T10:09:41.180Z,21.20
2023-05-21T10:10:41.190Z,20.80
2023-05-21T10:11:41.207Z,21.40
2023-05-21T10:12:41.203Z,20.80
2023-05-21T10:13:41.167Z,21.10
2023-05-21T10:14:41.205Z,20.60
2023-05-21T10:15:41.154Z,21.00
2023-05-21T10:16:41.247Z,19.90
2023-05-21T10:17:41.168Z,21.10
2023-05-21T10:18:41.137Z,20.60
2023-05-21T10:19:41.135Z,19.80
2023-05-21T10:20:41.125Z,21.60
2023-05-21T10:21:42.140Z,21.30
2023-05-21T10:22:41.132Z,21.60
2023-05-21T10:23:41.134Z,21.50
2023-05-21T10:24:41.170Z,21.40
2023-05-21T10:25:41.112Z,21.40
2023-05-21T10:26:41.064Z,20.90
2023-05-21T10:27:42.058Z,22.60
2023-05-21T10:28:41.106Z,21.90
2023-05-21T10:29:41.062Z,21.30
2023-05-21T10:30:41.055Z,20.90
2023-05-21T10:31:41.093Z,21.30
2023-05-21T10:32:41.145Z,20.70
2023-05-21T10:33:41.060Z,20.90
2023-05-21T10:34:41.070Z,22.10
2023-05-21T10:35:41.019Z,21.10
2023-05-21T10:36:41.008Z,20.50
2023-05-21T10:37:41.000Z,19.60
2023-05-21T10:38:41.637Z,20.30
2023-05-21T10:39:41.014Z,19.90
2023-05-21T10:40:41.008Z,19.90
2023-05-21T10:41:40.956Z,20.40
2023-05-21T10:42:40.963Z,20.30
2023-05-21T10:43:41.010Z,21.50
2023-05-21T10:44:41.034Z,20.70
2023-05-21T10:45:40.984Z,19.60
2023-05-21T10:46:41.006Z,19.30
2023-05-21T10:47:40.998Z,19.10
2023-05-21T10:48:40.956Z,20.00
2023-05-21T10:49:40.923Z,19.50
2023-05-21T10:50:40.935Z,19.10
2023-05-21T10:51:40.934Z,19.70
2023-05-21T10:52:40.938Z,19.50
2023-05-21T10:53:40.886Z,18.80
2023-05-21T10:54:40.891Z,19.60
2023-05-21T10:55:40.891Z,18.60
2023-05-21T10:56:40.905Z,18.20
2023-05-21T10:57:40.908Z,18.60
2023-05-21T10:58:40.845Z,18.20
2023-05-21T10:59:40.883Z,17.40
2023-05-21T11:00:40.872Z,18.90
2023-05-21T11:01:41.995Z,19.00
2023-05-21T11:02:40.921Z,18.80
2023-05-21T11:03:40.950Z,18.40
2023-05-21T11:04:40.868Z,18.10
2023-05-21T11:05:40.833Z,20.10
2023-05-21T11:06:40.797Z,19.30
2023-05-21T11:07:40.824Z,19.20
2023-05-21T11:08:40.830Z,17.70
2023-05-21T11:09:40.790Z,18.00
2023-05-21T11:10:41.009Z,18.80
2023-05-21T11:11:40.782Z,18.50
2023-05-21T11:12:40.811Z,18.70
2023-05-21T11:13:40.760Z,17.20
2023-05-21T11:14:40.825Z,18.20
2023-05-21T11:15:40.747Z,17.30
2023-05-21T11:16:40.810Z,17.50
2023-05-21T11:17:40.786Z,17.20
2023-05-21T11:18:40.741Z,17.40
2023-05-21T11:19:40.839Z,18.00
2023-05-21T11:20:40.703Z,17.80
2023-05-21T11:21:40.711Z,18.00
2023-05-21T11:22:40.712Z,16.60
2023-05-21T11:23:40.732Z,17.10
2023-05-21T11:24:40.674Z,16.70
2023-05-21T11:25:40.664Z,17.00
2023-05-21T11:26:40.664Z,17.10
2023-05-21T11:27:40.656Z,17.40
2023-05-21T11:28:40.636Z,17.10
2023-05-21T11:29:40.664Z,18.70
2023-05-21T11:30:41.233Z,17.20
2023-05-21T11:31:40.761Z,17.10
2023-05-21T11:32:40.678Z,17.40
2023-05-21T11:33:40.673Z,17.80
2023-05-21T11:34:40.634Z,17.50
2023-05-21T11:35:40.610Z,17.80
2023-05-21T11:36:40.591Z,17.70
2023-05-21T11:37:40.659Z,17.10
2023-05-21T11:38:40.590Z,17.40
2023-05-21T11:39:40.602Z,16.90
2023-05-21T11:40:40.570Z,16.50
2023-05-21T11:41:40.538Z,15.90
2023-05-21T11:42:40.593Z,16.10
2023-05-21T11:43:40.643Z,16.60
2023-05-21T11:44:40.572Z,17.50
2023-05-21T11:45:40.508Z,16.50
2023-05-21T11:46:40.550Z,16.70
2023-05-21T11:47:40.513Z,22.20
2023-05-21T11:48:40.521Z,18.40
2023-05-21T11:49:40.552Z,16.90
2023-05-21T11:50:40.495Z,15.90
2023-05-21T11:51:40.504Z,17.10
2023-05-21T11:52:40.462Z,16.50
2023-05-21T11:53:41.434Z,16.90
2023-05-21T11:54:40.480Z,16.60
2023-05-21T11:55:40.501Z,16.50
2023-05-21T11:56:40.490Z,17.00
2023-05-21T11:57:40.435Z,16.60
2023-05-21T11:58:40.434Z,16.00
2023-05-21T11:59:40.435Z,15.70
2023-05-21T12:00:40.496Z,16.00
2023-05-21T12:01:40.455Z,16.80
2023-05-21T12:02:40.526Z,15.20
2023-05-21T12:03:40.531Z,15.80
2023-05-21T12:04:40.472Z,15.00
2023-05-21T12:05:40.449Z,15.20
2023-05-21T12:06:40.433Z,14.80
2023-05-21T12:07:40.371Z,14.80
2023-05-21T12:08:40.365Z,15.20
2023-05-21T12:09:40.403Z,13.60
2023-05-21T12:10:40.380Z,13.50
2023-05-21T12:11:40.372Z,13.30
2023-05-21T12:12:53.822Z,13.70
2023-05-21T12:13:42.371Z,13.60
2023-05-21T12:14:40.340Z,13.70
2023-05-21T12:15:40.334Z,15.40
2023-05-21T12:16:40.409Z,14.40
2023-05-21T12:17:40.344Z,14.20
2023-05-21T12:18:40.343Z,13.80
2023-05-21T12:19:40.296Z,14.00
2023-05-21T12:20:40.296Z,14.30
2023-05-21T12:21:40.278Z,14.70
2023-05-21T12:22:40.307Z,14.40
2023-05-21T12:23:41.318Z,13.70
2023-05-21T12:24:40.269Z,12.60
2023-05-21T12:25:40.303Z,13.90
2023-05-21T12:26:40.275Z,13.70
2023-05-21T12:27:40.253Z,13.00
2023-05-21T12:28:40.233Z,14.30
2023-05-21T12:29:40.283Z,13.60
2023-05-21T12:30:40.213Z,12.90
2023-05-21T12:31:40.257Z,13.80
2023-05-21T12:32:40.245Z,13.20
2023-05-21T12:33:40.265Z,12.90
2023-05-21T12:34:40.262Z,13.40
2023-05-21T12:35:40.228Z,13.80
2023-05-21T12:36:40.201Z,13.60
2023-05-21T12:37:40.198Z,13.70
2023-05-21T12:38:40.197Z,14.20
2023-05-21T12:39:40.214Z,15.00
2023-05-21T12:40:40.634Z,14.10
2023-05-21T12:41:40.162Z,14.10
2023-05-21T12:42:40.228Z,14.00
2023-05-21T12:43:40.188Z,13.60
2023-05-21T12:44:40.133Z,13.60
2023-05-21T12:45:40.128Z,14.20
2023-05-21T12:46:40.246Z,13.20
2023-05-21T12:47:40.192Z,14.10
2023-05-21T12:48:40.114Z,13.30
2023-05-21T12:49:40.112Z,13.30
2023-05-21T12:50:40.141Z,14.30
2023-05-21T12:51:40.077Z,13.50
2023-05-21T12:52:40.076Z,14.10